sensor_id;sensor_type;location;lat;lon;timestamp;P1;durP1;ratioP1;P2;durP2;ratioP2
23080;SDS011;11708;50.570;8.532;2022-11-20T00:01:04;11.50;;;6.25;;
23080;SDS011;11708;50.570;8.532;2022-11-20T00:03:40;15.77;;;7.78;;
23080;SDS011;11708;50.570;8.532;2022-11-20T00:06:10;13.43;;;6.93;;
23080;SDS011;11708;50.570;8.532;2022-11-20T00:08:38;13.55;;;7.15;;
23080;SDS011;11708;50.570;8.532;2022-11-20T00:11:08;13.20;;;7.53;;
23080;SDS011;11708;50.570;8.532;2022-11-20T00:13:35;12.82;;;7.20;;
23080;SDS011;11708;50.570;8.532;2022-11-20T00:16:02;14.10;;;7.60;;
23080;SDS011;11708;50.570;8.532;2022-11-20T00:18:29;18.02;;;8.15;;
23080;SDS011;11708;50.570;8.532;2022-11-20T00:21:10;15.27;;;7.70;;
23080;SDS011;11708;50.570;8.532;2022-11-20T00:23:40;122.53;;;46.63;;
23080;SDS011;11708;50.570;8.532;2022-11-20T00:26:06;43.50;;;19.92;;
23080;SDS011;11708;50.570;8.532;2022-11-20T00:28:35;15.68;;;8.05;;
23080;SDS011;11708;50.570;8.532;2022-11-20T00:31:05;16.45;;;8.00;;
23080;SDS011;11708;50.570;8.532;2022-11-20T00:33:38;10.98;;;6.82;;
23080;SDS011;11708;50.570;8.532;2022-11-20T00:36:05;14.02;;;6.57;;
23080;SDS011;11708;50.570;8.532;2022-11-20T00:38:35;13.68;;;7.28;;
23080;SDS011;11708;50.570;8.532;2022-11-20T00:41:02;15.52;;;7.95;;
23080;SDS011;11708;50.570;8.532;2022-11-20T00:43:30;14.02;;;7.47;;
23080;SDS011;11708;50.570;8.532;2022-11-20T00:45:59;13.50;;;7.28;;
23080;SDS011;11708;50.570;8.532;2022-11-20T00:48:30;12.75;;;7.22;;
23080;SDS011;11708;50.570;8.532;2022-11-20T00:50:57;14.15;;;7.72;;
23080;SDS011;11708;50.570;8.532;2022-11-20T00:53:23;12.68;;;7.00;;
23080;SDS011;11708;50.570;8.532;2022-11-20T00:55:52;12.80;;;6.75;;
23080;SDS011;11708;50.570;8.532;2022-11-20T00:58:22;13.75;;;6.63;;
23080;SDS011;11708;50.570;8.532;2022-11-20T01:00:48;13.75;;;7.13;;
23080;SDS011;11708;50.570;8.532;2022-11-20T01:03:17;14.45;;;7.30;;
23080;SDS011;11708;50.570;8.532;2022-11-20T01:05:43;12.70;;;6.55;;
23080;SDS011;11708;50.570;8.532;2022-11-20T01:08:09;15.18;;;7.63;;
23080;SDS011;11708;50.570;8.532;2022-11-20T01:10:36;13.23;;;6.80;;
23080;SDS011;11708;50.570;8.532;2022-11-20T01:13:03;14.30;;;7.57;;
23080;SDS011;11708;50.570;8.532;2022-11-20T01:15:47;12.73;;;7.40;;
23080;SDS011;11708;50.570;8.532;2022-11-20T01:18:12;13.43;;;7.25;;
23080;SDS011;11708;50.570;8.532;2022-11-20T01:20:38;13.25;;;7.47;;
23080;SDS011;11708;50.570;8.532;2022-11-20T01:23:03;14.68;;;7.63;;
23080;SDS011;11708;50.570;8.532;2022-11-20T01:25:29;15.70;;;8.05;;
23080;SDS011;11708;50.570;8.532;2022-11-20T01:27:55;11.30;;;6.68;;
23080;SDS011;11708;50.570;8.532;2022-11-20T01:30:21;11.07;;;6.65;;
23080;SDS011;11708;50.570;8.532;2022-11-20T01:32:47;15.60;;;7.43;;
23080;SDS011;11708;50.570;8.532;2022-11-20T01:35:13;15.32;;;8.07;;
23080;SDS011;11708;50.570;8.532;2022-11-20T01:37:39;12.77;;;7.00;;
23080;SDS011;11708;50.570;8.532;2022-11-20T01:40:05;12.43;;;6.93;;
23080;SDS011;11708;50.570;8.532;2022-11-20T01:42:31;13.18;;;7.25;;
23080;SDS011;11708;50.570;8.532;2022-11-20T01:48:15;13.00;;;6.97;;
23080;SDS011;11708;50.570;8.532;2022-11-20T01:50:42;14.52;;;7.38;;
23080;SDS011;11708;50.570;8.532;2022-11-20T01:53:09;14.75;;;8.18;;
23080;SDS011;11708;50.570;8.532;2022-11-20T01:55:40;14.10;;;7.60;;
23080;SDS011;11708;50.570;8.532;2022-11-20T01:58:10;13.73;;;8.50;;
23080;SDS011;11708;50.570;8.532;2022-11-20T02:00:37;13.45;;;7.30;;
23080;SDS011;11708;50.570;8.532;2022-11-20T02:03:03;15.55;;;8.13;;
23080;SDS011;11708;50.570;8.532;2022-11-20T02:05:40;13.98;;;7.13;;
23080;SDS011;11708;50.570;8.532;2022-11-20T02:08:23;13.15;;;7.45;;
23080;SDS011;11708;50.570;8.532;2022-11-20T02:10:49;14.65;;;7.85;;
23080;SDS011;11708;50.570;8.532;2022-11-20T02:13:15;14.20;;;7.97;;
23080;SDS011;11708;50.570;8.532;2022-11-20T02:16:00;14.02;;;7.22;;
23080;SDS011;11708;50.570;8.532;2022-11-20T02:18:26;15.02;;;7.93;;
23080;SDS011;11708;50.570;8.532;2022-11-20T02:24:00;13.90;;;7.85;;
23080;SDS011;11708;50.570;8.532;2022-11-20T02:26:30;14.52;;;7.30;;
23080;SDS011;11708;50.570;8.532;2022-11-20T02:28:58;12.68;;;7.18;;
23080;SDS011;11708;50.570;8.532;2022-11-20T02:31:26;13.98;;;7.53;;
23080;SDS011;11708;50.570;8.532;2022-11-20T02:33:58;13.40;;;7.57;;
23080;SDS011;11708;50.570;8.532;2022-11-20T02:36:24;12.65;;;6.97;;
23080;SDS011;11708;50.570;8.532;2022-11-20T02:38:53;16.35;;;8.35;;
23080;SDS011;11708;50.570;8.532;2022-11-20T02:41:19;14.02;;;7.47;;
23080;SDS011;11708;50.570;8.532;2022-11-20T02:43:45;14.75;;;8.00;;
23080;SDS011;11708;50.570;8.532;2022-11-20T02:46:11;14.63;;;7.35;;
23080;SDS011;11708;50.570;8.532;2022-11-20T02:48:37;12.77;;;7.40;;
23080;SDS011;11708;50.570;8.532;2022-11-20T02:51:03;12.68;;;7.60;;
23080;SDS011;11708;50.570;8.532;2022-11-20T02:53:29;15.57;;;8.10;;
23080;SDS011;11708;50.570;8.532;2022-11-20T02:55:55;13.55;;;7.60;;
23080;SDS011;11708;50.570;8.532;2022-11-20T02:58:20;13.88;;;7.78;;
23080;SDS011;11708;50.570;8.532;2022-11-20T03:00:46;18.13;;;8.63;;
23080;SDS011;11708;50.570;8.532;2022-11-20T03:03:12;14.60;;;7.57;;
23080;SDS011;11708;50.570;8.532;2022-11-20T03:05:37;15.68;;;8.20;;
23080;SDS011;11708;50.570;8.532;2022-11-20T03:08:03;13.90;;;7.50;;
23080;SDS011;11708;50.570;8.532;2022-11-20T03:10:29;13.70;;;7.95;;
23080;SDS011;11708;50.570;8.532;2022-11-20T03:12:55;16.13;;;7.57;;
23080;SDS011;11708;50.570;8.532;2022-11-20T03:15:24;14.85;;;8.02;;
23080;SDS011;11708;50.570;8.532;2022-11-20T03:17:53;12.57;;;7.05;;
23080;SDS011;11708;50.570;8.532;2022-11-20T03:20:20;15.43;;;6.95;;
23080;SDS011;11708;50.570;8.532;2022-11-20T03:22:47;14.60;;;7.85;;
23080;SDS011;11708;50.570;8.532;2022-11-20T03:25:12;15.07;;;8.35;;
23080;SDS011;11708;50.570;8.532;2022-11-20T03:27:38;11.25;;;7.05;;
23080;SDS011;11708;50.570;8.532;2022-11-20T03:30:04;14.90;;;7.45;;
23080;SDS011;11708;50.570;8.532;2022-11-20T03:32:31;16.52;;;8.63;;
23080;SDS011;11708;50.570;8.532;2022-11-20T03:34:58;12.52;;;7.10;;
23080;SDS011;11708;50.570;8.532;2022-11-20T03:37:23;14.50;;;7.60;;
23080;SDS011;11708;50.570;8.532;2022-11-20T03:39:49;12.85;;;7.47;;
23080;SDS011;11708;50.570;8.532;2022-11-20T03:42:15;15.23;;;7.15;;
23080;SDS011;11708;50.570;8.532;2022-11-20T03:45:00;12.60;;;7.45;;
23080;SDS011;11708;50.570;8.532;2022-11-20T03:47:27;17.17;;;7.93;;
23080;SDS011;11708;50.570;8.532;2022-11-20T03:49:53;14.63;;;7.65;;
23080;SDS011;11708;50.570;8.532;2022-11-20T03:52:19;14.60;;;7.78;;
23080;SDS011;11708;50.570;8.532;2022-11-20T03:54:45;15.68;;;8.13;;
23080;SDS011;11708;50.570;8.532;2022-11-20T03:57:11;15.13;;;7.30;;
23080;SDS011;11708;50.570;8.532;2022-11-20T03:59:37;17.13;;;7.60;;
23080;SDS011;11708;50.570;8.532;2022-11-20T04:02:03;14.38;;;8.00;;
23080;SDS011;11708;50.570;8.532;2022-11-20T04:04:29;13.80;;;7.35;;
23080;SDS011;11708;50.570;8.532;2022-11-20T04:06:55;14.65;;;8.38;;
23080;SDS011;11708;50.570;8.532;2022-11-20T04:09:21;15.40;;;8.23;;
23080;SDS011;11708;50.570;8.532;2022-11-20T04:11:48;15.57;;;8.43;;
23080;SDS011;11708;50.570;8.532;2022-11-20T04:14:14;15.48;;;8.25;;
23080;SDS011;11708;50.570;8.532;2022-11-20T04:16:40;12.93;;;7.78;;
23080;SDS011;11708;50.570;8.532;2022-11-20T04:19:10;16.25;;;7.85;;
23080;SDS011;11708;50.570;8.532;2022-11-20T04:21:37;15.05;;;8.18;;
23080;SDS011;11708;50.570;8.532;2022-11-20T04:26:35;15.77;;;8.85;;
23080;SDS011;11708;50.570;8.532;2022-11-20T04:29:01;14.82;;;8.05;;
23080;SDS011;11708;50.570;8.532;2022-11-20T04:31:28;12.02;;;7.13;;
23080;SDS011;11708;50.570;8.532;2022-11-20T04:36:27;14.07;;;7.82;;
23080;SDS011;11708;50.570;8.532;2022-11-20T04:38:54;16.50;;;7.93;;
23080;SDS011;11708;50.570;8.532;2022-11-20T04:41:28;15.20;;;7.82;;
23080;SDS011;11708;50.570;8.532;2022-11-20T04:43:56;14.80;;;8.35;;
23080;SDS011;11708;50.570;8.532;2022-11-20T04:48:57;13.15;;;7.93;;
23080;SDS011;11708;50.570;8.532;2022-11-20T04:51:24;17.50;;;8.88;;
23080;SDS011;11708;50.570;8.532;2022-11-20T04:53:50;17.90;;;8.38;;
23080;SDS011;11708;50.570;8.532;2022-11-20T04:56:16;16.50;;;7.47;;
23080;SDS011;11708;50.570;8.532;2022-11-20T04:58:42;16.92;;;8.43;;
23080;SDS011;11708;50.570;8.532;2022-11-20T05:01:12;16.23;;;8.30;;
23080;SDS011;11708;50.570;8.532;2022-11-20T05:03:40;13.38;;;7.25;;
23080;SDS011;11708;50.570;8.532;2022-11-20T05:06:07;14.40;;;7.82;;
23080;SDS011;11708;50.570;8.532;2022-11-20T05:08:33;14.23;;;7.50;;
23080;SDS011;11708;50.570;8.532;2022-11-20T05:11:12;18.38;;;8.60;;
23080;SDS011;11708;50.570;8.532;2022-11-20T05:13:40;13.98;;;7.25;;
23080;SDS011;11708;50.570;8.532;2022-11-20T05:16:08;13.80;;;6.97;;
23080;SDS011;11708;50.570;8.532;2022-11-20T05:18:39;15.38;;;8.15;;
23080;SDS011;11708;50.570;8.532;2022-11-20T05:21:05;14.30;;;7.63;;
23080;SDS011;11708;50.570;8.532;2022-11-20T05:23:32;13.68;;;8.25;;
23080;SDS011;11708;50.570;8.532;2022-11-20T05:25:58;12.00;;;7.65;;
23080;SDS011;11708;50.570;8.532;2022-11-20T05:28:24;15.18;;;8.45;;
23080;SDS011;11708;50.570;8.532;2022-11-20T05:30:50;17.48;;;8.30;;
23080;SDS011;11708;50.570;8.532;2022-11-20T05:35:47;14.07;;;7.75;;
23080;SDS011;11708;50.570;8.532;2022-11-20T05:38:13;15.73;;;7.78;;
23080;SDS011;11708;50.570;8.532;2022-11-20T05:40:39;14.35;;;8.02;;
23080;SDS011;11708;50.570;8.532;2022-11-20T05:43:05;21.50;;;9.13;;
23080;SDS011;11708;50.570;8.532;2022-11-20T05:45:31;14.40;;;8.00;;
23080;SDS011;11708;50.570;8.532;2022-11-20T05:47:58;17.63;;;8.90;;
23080;SDS011;11708;50.570;8.532;2022-11-20T05:50:25;16.08;;;8.70;;
23080;SDS011;11708;50.570;8.532;2022-11-20T05:52:51;17.30;;;8.55;;
23080;SDS011;11708;50.570;8.532;2022-11-20T05:55:17;16.35;;;8.90;;
23080;SDS011;11708;50.570;8.532;2022-11-20T05:57:42;15.43;;;8.60;;
23080;SDS011;11708;50.570;8.532;2022-11-20T06:00:09;16.13;;;8.43;;
23080;SDS011;11708;50.570;8.532;2022-11-20T06:02:35;17.60;;;9.20;;
23080;SDS011;11708;50.570;8.532;2022-11-20T06:05:01;18.60;;;8.55;;
23080;SDS011;11708;50.570;8.532;2022-11-20T06:07:27;18.90;;;8.73;;
23080;SDS011;11708;50.570;8.532;2022-11-20T06:09:53;19.17;;;9.05;;
23080;SDS011;11708;50.570;8.532;2022-11-20T06:12:18;18.00;;;9.10;;
23080;SDS011;11708;50.570;8.532;2022-11-20T06:14:44;18.55;;;9.90;;
23080;SDS011;11708;50.570;8.532;2022-11-20T06:17:10;18.85;;;9.13;;
23080;SDS011;11708;50.570;8.532;2022-11-20T06:19:36;18.90;;;9.98;;
23080;SDS011;11708;50.570;8.532;2022-11-20T06:22:01;21.63;;;10.80;;
23080;SDS011;11708;50.570;8.532;2022-11-20T06:24:27;17.73;;;9.25;;
23080;SDS011;11708;50.570;8.532;2022-11-20T06:26:53;18.95;;;9.73;;
23080;SDS011;11708;50.570;8.532;2022-11-20T06:29:19;18.77;;;9.55;;
23080;SDS011;11708;50.570;8.532;2022-11-20T06:31:45;18.45;;;9.85;;
23080;SDS011;11708;50.570;8.532;2022-11-20T06:34:11;19.77;;;10.20;;
23080;SDS011;11708;50.570;8.532;2022-11-20T06:36:37;18.65;;;9.52;;
23080;SDS011;11708;50.570;8.532;2022-11-20T06:39:03;23.85;;;11.10;;
23080;SDS011;11708;50.570;8.532;2022-11-20T06:41:29;24.17;;;10.77;;
23080;SDS011;11708;50.570;8.532;2022-11-20T06:43:55;22.08;;;10.45;;
23080;SDS011;11708;50.570;8.532;2022-11-20T06:46:22;21.27;;;10.35;;
23080;SDS011;11708;50.570;8.532;2022-11-20T06:48:48;19.23;;;9.82;;
23080;SDS011;11708;50.570;8.532;2022-11-20T06:51:14;21.08;;;9.98;;
23080;SDS011;11708;50.570;8.532;2022-11-20T06:53:40;19.80;;;10.43;;
23080;SDS011;11708;50.570;8.532;2022-11-20T06:56:06;19.60;;;10.38;;
23080;SDS011;11708;50.570;8.532;2022-11-20T06:58:33;22.65;;;10.85;;
23080;SDS011;11708;50.570;8.532;2022-11-20T07:01:00;25.00;;;10.88;;
23080;SDS011;11708;50.570;8.532;2022-11-20T07:03:27;26.52;;;12.20;;
23080;SDS011;11708;50.570;8.532;2022-11-20T07:05:54;26.95;;;11.07;;
23080;SDS011;11708;50.570;8.532;2022-11-20T07:08:21;19.80;;;10.20;;
23080;SDS011;11708;50.570;8.532;2022-11-20T07:10:46;21.15;;;10.32;;
23080;SDS011;11708;50.570;8.532;2022-11-20T07:13:12;28.10;;;11.38;;
23080;SDS011;11708;50.570;8.532;2022-11-20T07:15:38;23.63;;;10.88;;
23080;SDS011;11708;50.570;8.532;2022-11-20T07:18:09;25.08;;;11.57;;
23080;SDS011;11708;50.570;8.532;2022-11-20T07:20:34;23.98;;;11.95;;
23080;SDS011;11708;50.570;8.532;2022-11-20T07:23:00;24.55;;;11.13;;
23080;SDS011;11708;50.570;8.532;2022-11-20T07:25:26;23.60;;;11.07;;
23080;SDS011;11708;50.570;8.532;2022-11-20T07:27:56;21.67;;;10.75;;
23080;SDS011;11708;50.570;8.532;2022-11-20T07:30:28;22.85;;;11.57;;
23080;SDS011;11708;50.570;8.532;2022-11-20T07:32:54;24.65;;;12.20;;
23080;SDS011;11708;50.570;8.532;2022-11-20T07:35:21;24.35;;;11.63;;
23080;SDS011;11708;50.570;8.532;2022-11-20T07:37:47;27.85;;;12.80;;
23080;SDS011;11708;50.570;8.532;2022-11-20T07:40:14;25.33;;;12.18;;
23080;SDS011;11708;50.570;8.532;2022-11-20T07:42:50;28.50;;;12.02;;
23080;SDS011;11708;50.570;8.532;2022-11-20T07:45:18;28.20;;;13.10;;
23080;SDS011;11708;50.570;8.532;2022-11-20T07:47:45;27.50;;;13.65;;
23080;SDS011;11708;50.570;8.532;2022-11-20T07:50:11;23.42;;;12.18;;
23080;SDS011;11708;50.570;8.532;2022-11-20T07:52:37;27.35;;;13.20;;
23080;SDS011;11708;50.570;8.532;2022-11-20T07:55:04;24.08;;;12.27;;
23080;SDS011;11708;50.570;8.532;2022-11-20T07:57:35;24.73;;;11.80;;
23080;SDS011;11708;50.570;8.532;2022-11-20T08:00:01;25.90;;;11.88;;
23080;SDS011;11708;50.570;8.532;2022-11-20T08:02:28;25.85;;;12.95;;
23080;SDS011;11708;50.570;8.532;2022-11-20T08:04:54;26.42;;;12.38;;
23080;SDS011;11708;50.570;8.532;2022-11-20T08:07:20;25.38;;;12.27;;
23080;SDS011;11708;50.570;8.532;2022-11-20T08:09:45;27.25;;;11.60;;
23080;SDS011;11708;50.570;8.532;2022-11-20T08:12:16;25.67;;;12.00;;
23080;SDS011;11708;50.570;8.532;2022-11-20T08:15:03;21.58;;;10.30;;
23080;SDS011;11708;50.570;8.532;2022-11-20T08:17:29;26.45;;;12.32;;
23080;SDS011;11708;50.570;8.532;2022-11-20T08:19:55;21.08;;;10.95;;
23080;SDS011;11708;50.570;8.532;2022-11-20T08:22:21;24.60;;;11.77;;
23080;SDS011;11708;50.570;8.532;2022-11-20T08:24:48;25.30;;;12.32;;
23080;SDS011;11708;50.570;8.532;2022-11-20T08:27:14;27.23;;;13.40;;
23080;SDS011;11708;50.570;8.532;2022-11-20T08:29:40;25.48;;;12.27;;
23080;SDS011;11708;50.570;8.532;2022-11-20T08:32:05;30.58;;;14.35;;
23080;SDS011;11708;50.570;8.532;2022-11-20T08:34:31;32.50;;;13.82;;
23080;SDS011;11708;50.570;8.532;2022-11-20T08:36:57;26.38;;;12.68;;
23080;SDS011;11708;50.570;8.532;2022-11-20T08:39:23;27.40;;;13.30;;
23080;SDS011;11708;50.570;8.532;2022-11-20T08:41:49;26.13;;;13.15;;
23080;SDS011;11708;50.570;8.532;2022-11-20T08:44:15;30.13;;;13.98;;
23080;SDS011;11708;50.570;8.532;2022-11-20T08:46:41;32.72;;;14.68;;
23080;SDS011;11708;50.570;8.532;2022-11-20T08:49:09;34.10;;;14.90;;
23080;SDS011;11708;50.570;8.532;2022-11-20T08:51:36;32.28;;;15.43;;
23080;SDS011;11708;50.570;8.532;2022-11-20T08:54:02;38.67;;;16.13;;
23080;SDS011;11708;50.570;8.532;2022-11-20T08:56:28;30.83;;;14.95;;
23080;SDS011;11708;50.570;8.532;2022-11-20T08:58:54;33.20;;;15.05;;
23080;SDS011;11708;50.570;8.532;2022-11-20T09:01:20;32.45;;;14.73;;
23080;SDS011;11708;50.570;8.532;2022-11-20T09:03:46;31.95;;;15.20;;
23080;SDS011;11708;50.570;8.532;2022-11-20T09:06:13;30.08;;;13.88;;
23080;SDS011;11708;50.570;8.532;2022-11-20T09:08:39;32.72;;;14.10;;
23080;SDS011;11708;50.570;8.532;2022-11-20T09:11:05;34.20;;;14.52;;
23080;SDS011;11708;50.570;8.532;2022-11-20T09:13:32;31.52;;;13.85;;
23080;SDS011;11708;50.570;8.532;2022-11-20T09:16:00;34.78;;;15.68;;
23080;SDS011;11708;50.570;8.532;2022-11-20T09:18:28;33.35;;;15.95;;
23080;SDS011;11708;50.570;8.532;2022-11-20T09:20:58;31.08;;;15.20;;
23080;SDS011;11708;50.570;8.532;2022-11-20T09:23:25;32.05;;;15.02;;
23080;SDS011;11708;50.570;8.532;2022-11-20T09:25:51;34.92;;;15.13;;
23080;SDS011;11708;50.570;8.532;2022-11-20T09:28:20;33.58;;;15.82;;
23080;SDS011;11708;50.570;8.532;2022-11-20T09:30:46;33.03;;;14.93;;
23080;SDS011;11708;50.570;8.532;2022-11-20T09:33:12;31.80;;;15.80;;
23080;SDS011;11708;50.570;8.532;2022-11-20T09:35:38;36.05;;;15.05;;
23080;SDS011;11708;50.570;8.532;2022-11-20T09:38:07;33.85;;;15.38;;
23080;SDS011;11708;50.570;8.532;2022-11-20T09:40:34;32.53;;;14.70;;
23080;SDS011;11708;50.570;8.532;2022-11-20T09:43:15;35.83;;;15.27;;
23080;SDS011;11708;50.570;8.532;2022-11-20T09:45:54;37.45;;;16.33;;
23080;SDS011;11708;50.570;8.532;2022-11-20T09:51:05;37.42;;;15.90;;
23080;SDS011;11708;50.570;8.532;2022-11-20T09:56:02;42.75;;;17.88;;
23080;SDS011;11708;50.570;8.532;2022-11-20T10:00:58;43.67;;;16.98;;
23080;SDS011;11708;50.570;8.532;2022-11-20T10:03:50;40.63;;;16.90;;
23080;SDS011;11708;50.570;8.532;2022-11-20T10:07:02;38.90;;;17.35;;
23080;SDS011;11708;50.570;8.532;2022-11-20T10:09:35;39.05;;;17.20;;
23080;SDS011;11708;50.570;8.532;2022-11-20T10:14:45;38.45;;;16.38;;
23080;SDS011;11708;50.570;8.532;2022-11-20T10:17:50;42.63;;;16.75;;
23080;SDS011;11708;50.570;8.532;2022-11-20T10:20:40;36.65;;;16.67;;
23080;SDS011;11708;50.570;8.532;2022-11-20T10:25:39;39.35;;;16.77;;
23080;SDS011;11708;50.570;8.532;2022-11-20T10:28:20;41.45;;;18.77;;
23080;SDS011;11708;50.570;8.532;2022-11-20T10:31:00;40.05;;;15.57;;
23080;SDS011;11708;50.570;8.532;2022-11-20T10:33:30;40.67;;;16.52;;
23080;SDS011;11708;50.570;8.532;2022-11-20T10:38:34;36.75;;;14.65;;
23080;SDS011;11708;50.570;8.532;2022-11-20T10:41:13;36.00;;;14.50;;
23080;SDS011;11708;50.570;8.532;2022-11-20T10:43:50;39.22;;;15.38;;
23080;SDS011;11708;50.570;8.532;2022-11-20T10:46:42;38.80;;;15.45;;
23080;SDS011;11708;50.570;8.532;2022-11-20T10:49:13;38.47;;;14.50;;
23080;SDS011;11708;50.570;8.532;2022-11-20T11:00:09;37.13;;;14.32;;
23080;SDS011;11708;50.570;8.532;2022-11-20T11:02:39;30.17;;;13.25;;
23080;SDS011;11708;50.570;8.532;2022-11-20T11:05:31;35.70;;;15.20;;
23080;SDS011;11708;50.570;8.532;2022-11-20T11:07:58;36.47;;;14.40;;
23080;SDS011;11708;50.570;8.532;2022-11-20T11:10:26;38.00;;;16.10;;
23080;SDS011;11708;50.570;8.532;2022-11-20T11:13:02;33.28;;;13.38;;
23080;SDS011;11708;50.570;8.532;2022-11-20T11:15:38;33.88;;;13.55;;
23080;SDS011;11708;50.570;8.532;2022-11-20T11:18:05;41.63;;;16.23;;
23080;SDS011;11708;50.570;8.532;2022-11-20T11:20:35;32.00;;;13.55;;
23080;SDS011;11708;50.570;8.532;2022-11-20T11:23:01;35.90;;;15.38;;
23080;SDS011;11708;50.570;8.532;2022-11-20T11:27:53;36.55;;;14.93;;
23080;SDS011;11708;50.570;8.532;2022-11-20T11:30:21;35.47;;;16.92;;
23080;SDS011;11708;50.570;8.532;2022-11-20T11:33:10;35.00;;;15.38;;
23080;SDS011;11708;50.570;8.532;2022-11-20T11:35:44;36.45;;;16.98;;
23080;SDS011;11708;50.570;8.532;2022-11-20T11:38:16;33.10;;;15.05;;
23080;SDS011;11708;50.570;8.532;2022-11-20T11:40:44;34.22;;;14.23;;
23080;SDS011;11708;50.570;8.532;2022-11-20T11:43:16;35.78;;;16.10;;
23080;SDS011;11708;50.570;8.532;2022-11-20T11:46:05;38.15;;;16.83;;
23080;SDS011;11708;50.570;8.532;2022-11-20T11:48:58;37.70;;;16.92;;
23080;SDS011;11708;50.570;8.532;2022-11-20T11:51:41;42.17;;;16.45;;
23080;SDS011;11708;50.570;8.532;2022-11-20T11:54:34;42.72;;;18.20;;
23080;SDS011;11708;50.570;8.532;2022-11-20T12:00:14;41.63;;;17.95;;
23080;SDS011;11708;50.570;8.532;2022-11-20T12:13:01;41.63;;;18.23;;
23080;SDS011;11708;50.570;8.532;2022-11-20T12:15:33;42.33;;;17.73;;
23080;SDS011;11708;50.570;8.532;2022-11-20T12:17:59;44.90;;;19.30;;
23080;SDS011;11708;50.570;8.532;2022-11-20T12:20:29;41.60;;;17.77;;
23080;SDS011;11708;50.570;8.532;2022-11-20T12:23:08;40.28;;;17.90;;
23080;SDS011;11708;50.570;8.532;2022-11-20T12:26:00;41.42;;;17.80;;
23080;SDS011;11708;50.570;8.532;2022-11-20T12:31:24;40.00;;;18.92;;
23080;SDS011;11708;50.570;8.532;2022-11-20T12:34:27;42.13;;;19.25;;
23080;SDS011;11708;50.570;8.532;2022-11-20T12:37:02;38.13;;;17.80;;
23080;SDS011;11708;50.570;8.532;2022-11-20T12:39:45;39.78;;;16.48;;
23080;SDS011;11708;50.570;8.532;2022-11-20T12:42:21;41.25;;;17.92;;
23080;SDS011;11708;50.570;8.532;2022-11-20T12:51:42;40.58;;;18.38;;
23080;SDS011;11708;50.570;8.532;2022-11-20T12:57:15;47.20;;;19.25;;
23080;SDS011;11708;50.570;8.532;2022-11-20T13:07:52;42.03;;;18.02;;
23080;SDS011;11708;50.570;8.532;2022-11-20T13:10:25;39.50;;;17.42;;
23080;SDS011;11708;50.570;8.532;2022-11-20T13:15:33;46.20;;;21.73;;
23080;SDS011;11708;50.570;8.532;2022-11-20T13:18:10;41.55;;;19.98;;
23080;SDS011;11708;50.570;8.532;2022-11-20T13:20:42;38.38;;;18.00;;
23080;SDS011;11708;50.570;8.532;2022-11-20T13:23:11;39.58;;;18.00;;
23080;SDS011;11708;50.570;8.532;2022-11-20T13:25:49;37.67;;;16.63;;
23080;SDS011;11708;50.570;8.532;2022-11-20T13:30:50;43.05;;;18.65;;
23080;SDS011;11708;50.570;8.532;2022-11-20T13:38:44;42.50;;;17.85;;
23080;SDS011;11708;50.570;8.532;2022-11-20T13:44:33;43.15;;;17.25;;
23080;SDS011;11708;50.570;8.532;2022-11-20T13:46:57;39.85;;;16.98;;
23080;SDS011;11708;50.570;8.532;2022-11-20T13:49:26;40.47;;;18.10;;
23080;SDS011;11708;50.570;8.532;2022-11-20T13:51:59;34.50;;;16.20;;
23080;SDS011;11708;50.570;8.532;2022-11-20T13:54:43;38.97;;;17.02;;
23080;SDS011;11708;50.570;8.532;2022-11-20T14:02:20;38.35;;;16.85;;
23080;SDS011;11708;50.570;8.532;2022-11-20T14:04:49;34.13;;;16.48;;
23080;SDS011;11708;50.570;8.532;2022-11-20T14:07:18;36.47;;;16.73;;
23080;SDS011;11708;50.570;8.532;2022-11-20T14:09:52;35.58;;;15.77;;
23080;SDS011;11708;50.570;8.532;2022-11-20T14:12:23;31.23;;;14.55;;
23080;SDS011;11708;50.570;8.532;2022-11-20T14:14:53;30.73;;;14.48;;
23080;SDS011;11708;50.570;8.532;2022-11-20T14:17:24;36.75;;;15.68;;
23080;SDS011;11708;50.570;8.532;2022-11-20T14:19:58;33.47;;;15.60;;
23080;SDS011;11708;50.570;8.532;2022-11-20T14:22:27;31.05;;;15.10;;
23080;SDS011;11708;50.570;8.532;2022-11-20T14:25:04;34.28;;;15.45;;
23080;SDS011;11708;50.570;8.532;2022-11-20T14:27:38;31.35;;;15.75;;
23080;SDS011;11708;50.570;8.532;2022-11-20T14:30:05;32.05;;;14.80;;
23080;SDS011;11708;50.570;8.532;2022-11-20T14:32:42;27.80;;;14.13;;
23080;SDS011;11708;50.570;8.532;2022-11-20T14:35:13;30.88;;;13.57;;
23080;SDS011;11708;50.570;8.532;2022-11-20T14:37:44;31.92;;;15.68;;
23080;SDS011;11708;50.570;8.532;2022-11-20T14:40:30;33.35;;;14.88;;
23080;SDS011;11708;50.570;8.532;2022-11-20T14:42:58;32.63;;;16.20;;
23080;SDS011;11708;50.570;8.532;2022-11-20T14:45:24;38.97;;;17.30;;
23080;SDS011;11708;50.570;8.532;2022-11-20T14:47:54;35.60;;;15.10;;
23080;SDS011;11708;50.570;8.532;2022-11-20T14:50:23;30.27;;;14.73;;
23080;SDS011;11708;50.570;8.532;2022-11-20T14:52:51;31.10;;;15.10;;
23080;SDS011;11708;50.570;8.532;2022-11-20T14:55:39;28.00;;;14.75;;
23080;SDS011;11708;50.570;8.532;2022-11-20T14:58:06;35.30;;;15.70;;
23080;SDS011;11708;50.570;8.532;2022-11-20T15:00:56;34.30;;;16.10;;
23080;SDS011;11708;50.570;8.532;2022-11-20T15:03:30;38.15;;;16.77;;
23080;SDS011;11708;50.570;8.532;2022-11-20T15:06:07;40.00;;;17.52;;
23080;SDS011;11708;50.570;8.532;2022-11-20T15:08:36;39.17;;;17.80;;
23080;SDS011;11708;50.570;8.532;2022-11-20T15:11:02;36.67;;;16.20;;
23080;SDS011;11708;50.570;8.532;2022-11-20T15:13:32;37.28;;;17.58;;
23080;SDS011;11708;50.570;8.532;2022-11-20T15:16:00;37.78;;;16.45;;
23080;SDS011;11708;50.570;8.532;2022-11-20T15:18:33;37.35;;;17.20;;
23080;SDS011;11708;50.570;8.532;2022-11-20T15:21:03;39.10;;;17.88;;
23080;SDS011;11708;50.570;8.532;2022-11-20T15:23:35;38.85;;;17.85;;
23080;SDS011;11708;50.570;8.532;2022-11-20T15:26:01;40.20;;;17.83;;
23080;SDS011;11708;50.570;8.532;2022-11-20T15:28:31;40.63;;;17.42;;
23080;SDS011;11708;50.570;8.532;2022-11-20T15:31:09;38.22;;;17.30;;
23080;SDS011;11708;50.570;8.532;2022-11-20T15:33:37;41.45;;;17.92;;
23080;SDS011;11708;50.570;8.532;2022-11-20T15:36:03;39.47;;;17.98;;
23080;SDS011;11708;50.570;8.532;2022-11-20T15:38:29;52.20;;;22.45;;
23080;SDS011;11708;50.570;8.532;2022-11-20T15:40:55;48.92;;;22.05;;
23080;SDS011;11708;50.570;8.532;2022-11-20T15:43:21;54.08;;;22.40;;
23080;SDS011;11708;50.570;8.532;2022-11-20T15:45:49;45.33;;;19.75;;
23080;SDS011;11708;50.570;8.532;2022-11-20T15:48:27;38.70;;;17.50;;
23080;SDS011;11708;50.570;8.532;2022-11-20T15:50:58;38.22;;;16.73;;
23080;SDS011;11708;50.570;8.532;2022-11-20T15:53:25;38.45;;;17.23;;
23080;SDS011;11708;50.570;8.532;2022-11-20T15:55:51;34.33;;;15.98;;
23080;SDS011;11708;50.570;8.532;2022-11-20T15:58:17;41.05;;;18.08;;
23080;SDS011;11708;50.570;8.532;2022-11-20T16:00:43;39.00;;;17.08;;
23080;SDS011;11708;50.570;8.532;2022-11-20T16:03:12;38.97;;;16.60;;
23080;SDS011;11708;50.570;8.532;2022-11-20T16:05:40;36.33;;;15.27;;
23080;SDS011;11708;50.570;8.532;2022-11-20T16:08:06;41.60;;;16.60;;
23080;SDS011;11708;50.570;8.532;2022-11-20T16:10:32;37.67;;;15.82;;
23080;SDS011;11708;50.570;8.532;2022-11-20T16:12:58;41.38;;;17.55;;
23080;SDS011;11708;50.570;8.532;2022-11-20T16:15:43;75.10;;;29.67;;